createdAt,value
2023-02-23T00:01:19.579Z,83.71
2023-02-23T00:04:48.155Z,83.80
2023-02-23T00:08:16.043Z,83.86
2023-02-23T00:11:43.470Z,83.69
2023-02-23T00:15:13.266Z,83.75
2023-02-23T00:18:50.339Z,83.84
2023-02-23T00:22:17.938Z,83.93
2023-02-23T00:25:46.403Z,83.74
2023-02-23T00:29:17.545Z,83.81
2023-02-23T00:32:44.969Z,83.67
2023-02-23T00:36:14.607Z,83.82
2023-02-23T00:39:40.044Z,83.70
2023-02-23T00:43:07.165Z,83.77
2023-02-23T00:46:34.304Z,83.81
2023-02-23T00:50:01.529Z,83.64
2023-02-23T00:53:29.012Z,83.75
2023-02-23T00:56:56.328Z,83.84
2023-02-23T01:00:25.657Z,83.76
2023-02-23T01:03:54.529Z,83.64
2023-02-23T01:07:25.642Z,83.64
2023-02-23T01:10:53.928Z,83.79
2023-02-23T01:14:22.114Z,83.85
2023-02-23T01:17:49.472Z,83.94
2023-02-23T01:21:21.448Z,83.78
2023-02-23T01:24:48.657Z,83.67
2023-02-23T01:28:15.815Z,83.82
2023-02-23T01:31:45.883Z,83.78
2023-02-23T01:35:16.460Z,83.94
2023-02-23T01:38:43.977Z,83.90
2023-02-23T01:42:15.035Z,83.94
2023-02-23T01:45:43.118Z,84.09
2023-02-23T01:49:15.495Z,83.78
2023-02-23T01:52:43.619Z,83.73
2023-02-23T01:56:16.616Z,83.63
2023-02-23T01:59:46.602Z,83.60
2023-02-23T02:03:20.202Z,83.73
2023-02-23T02:06:53.441Z,83.60
2023-02-23T02:10:38.707Z,83.57
2023-02-23T02:14:13.470Z,83.68
2023-02-23T02:17:49.778Z,83.43
2023-02-23T02:21:44.776Z,83.56
2023-02-23T02:25:43.333Z,83.71
2023-02-23T02:29:42.633Z,83.60
2023-02-23T02:33:26.762Z,83.65
2023-02-23T02:37:21.288Z,83.81
2023-02-23T02:40:55.157Z,83.80
2023-02-23T02:44:28.926Z,83.82
2023-02-23T02:48:01.148Z,84.13
2023-02-23T02:51:35.207Z,84.05
2023-02-23T02:55:12.282Z,84.07
2023-02-23T02:58:43.552Z,84.00
2023-02-23T03:02:36.052Z,84.31
2023-02-23T03:06:21.471Z,84.24
2023-02-23T03:10:13.246Z,84.16
2023-02-23T03:14:07.177Z,84.19
2023-02-23T03:17:58.333Z,84.22
2023-02-23T03:21:48.132Z,84.30
2023-02-23T03:25:37.960Z,84.37
2023-02-23T03:29:31.707Z,84.48
2023-02-23T03:33:20.372Z,84.88
2023-02-23T03:37:11.271Z,84.82
2023-02-23T03:41:00.813Z,85.03
2023-02-23T03:44:46.001Z,84.75
2023-02-23T03:48:34.565Z,84.81
2023-02-23T03:52:24.914Z,84.77
2023-02-23T03:56:15.945Z,85.10
2023-02-23T04:00:05.547Z,84.92
2023-02-23T04:04:02.106Z,84.85
2023-02-23T04:07:47.831Z,84.96
2023-02-23T04:11:38.648Z,84.94
2023-02-23T04:15:12.767Z,84.97
2023-02-23T04:18:42.636Z,84.90
2023-02-23T04:22:09.864Z,84.94
2023-02-23T04:25:37.034Z,85.01
2023-02-23T04:29:04.183Z,85.02
2023-02-23T04:32:31.836Z,85.11
2023-02-23T04:35:59.169Z,85.03
2023-02-23T04:39:26.450Z,85.29
2023-02-23T04:42:53.927Z,85.19
2023-02-23T04:46:21.113Z,85.51
2023-02-23T04:49:48.742Z,85.34
2023-02-23T04:53:15.941Z,85.21
2023-02-23T04:56:43.249Z,85.10
2023-02-23T05:00:13.252Z,85.28
2023-02-23T05:03:40.349Z,85.23
2023-02-23T05:07:07.552Z,85.25
2023-02-23T05:10:35.085Z,85.38
2023-02-23T05:14:02.473Z,85.41
2023-02-23T05:17:29.878Z,85.50
2023-02-23T05:21:07.801Z,85.61
2023-02-23T05:24:35.516Z,85.53
2023-02-23T05:28:02.768Z,85.66
2023-02-23T05:31:30.455Z,85.73
2023-02-23T05:34:57.766Z,85.80
2023-02-23T05:38:24.978Z,85.79
2023-02-23T05:41:52.634Z,85.80
2023-02-23T05:45:20.002Z,85.89
2023-02-23T05:48:47.265Z,86.12
2023-02-23T05:52:14.344Z,86.15
2023-02-23T05:55:41.486Z,86.04
2023-02-23T05:59:08.791Z,86.22
2023-02-23T06:02:36.580Z,86.33
2023-02-23T06:06:03.789Z,86.29
2023-02-23T06:09:30.939Z,86.36
2023-02-23T06:12:58.340Z,86.41
2023-02-23T06:16:25.414Z,86.64
2023-02-23T06:19:52.710Z,86.74
2023-02-23T06:23:20.211Z,86.61
2023-02-23T06:26:48.026Z,86.80
2023-02-23T06:30:16.836Z,86.67
2023-02-23T06:33:44.022Z,86.66
2023-02-23T06:37:12.233Z,86.53
2023-02-23T06:40:41.576Z,86.51
2023-02-23T06:44:08.968Z,86.31
2023-02-23T06:47:36.052Z,86.02
2023-02-23T06:51:03.446Z,85.88
2023-02-23T06:54:30.595Z,85.90
2023-02-23T06:57:58.429Z,85.70
2023-02-23T07:01:25.523Z,85.64
2023-02-23T07:04:52.740Z,85.54
2023-02-23T07:08:20.541Z,85.35
2023-02-23T07:11:47.683Z,85.09
2023-02-23T07:15:18.656Z,85.19
2023-02-23T07:18:45.896Z,84.72
2023-02-23T07:22:13.226Z,84.27
2023-02-23T07:25:40.680Z,84.02
2023-02-23T07:29:08.263Z,83.99
2023-02-23T07:32:35.814Z,84.03
2023-02-23T07:36:03.402Z,83.41
2023-02-23T07:39:31.174Z,83.79
2023-02-23T07:42:58.620Z,82.95
2023-02-23T07:46:26.090Z,82.71
2023-02-23T07:49:53.486Z,82.54
2023-02-23T07:53:21.098Z,82.80
2023-02-23T07:56:48.331Z,82.35
2023-02-23T08:00:17.723Z,82.19
2023-02-23T08:03:49.895Z,81.86
2023-02-23T08:07:17.290Z,81.63
2023-02-23T08:10:44.667Z,81.24
2023-02-23T08:14:13.145Z,81.37
2023-02-23T08:17:41.396Z,80.85
2023-02-23T08:21:09.109Z,81.19
2023-02-23T08:24:37.063Z,81.12
2023-02-23T08:28:06.973Z,81.35
2023-02-23T08:31:34.412Z,81.50
2023-02-23T08:35:02.846Z,81.51
2023-02-23T08:38:30.369Z,80.84
2023-02-23T08:41:57.533Z,80.87
2023-02-23T08:45:24.626Z,80.84
2023-02-23T08:48:52.575Z,80.77
2023-02-23T08:52:19.931Z,80.31
2023-02-23T08:55:48.094Z,80.21
2023-02-23T08:59:16.787Z,80.13
2023-02-23T09:02:45.448Z,80.13
2023-02-23T09:06:16.496Z,80.20
2023-02-23T09:09:44.216Z,79.91
2023-02-23T09:13:11.473Z,79.89
2023-02-23T09:16:39.038Z,79.89
2023-02-23T09:20:07.210Z,80.25
2023-02-23T09:23:34.434Z,80.01
2023-02-23T09:27:01.643Z,79.54
2023-02-23T09:30:30.333Z,79.15
2023-02-23T09:33:58.211Z,78.93
2023-02-23T09:37:25.768Z,79.12
2023-02-23T09:40:56.051Z,77.89
2023-02-23T09:44:34.149Z,77.81
2023-02-23T09:48:14.062Z,77.20
2023-02-23T09:51:46.598Z,77.09
2023-02-23T09:55:16.446Z,76.93
2023-02-23T09:58:43.954Z,76.91
2023-02-23T10:02:24.227Z,76.44
2023-02-23T10:05:57.084Z,76.60
2023-02-23T10:09:37.437Z,75.94
2023-02-23T10:13:14.704Z,76.30
2023-02-23T10:16:59.724Z,76.29
2023-02-23T10:20:33.316Z,75.76
2023-02-23T10:24:05.103Z,75.48
2023-02-23T10:27:42.049Z,75.48
2023-02-23T10:31:26.430Z,75.48
2023-02-23T10:34:57.055Z,74.57
2023-02-23T10:38:24.287Z,74.97
2023-02-23T10:41:52.180Z,75.02
2023-02-23T10:45:24.550Z,74.99
2023-02-23T10:48:55.788Z,74.58
2023-02-23T10:52:26.310Z,74.65
2023-02-23T10:56:04.591Z,74.86
2023-02-23T10:59:32.008Z,74.77
2023-02-23T11:03:00.706Z,74.01
2023-02-23T11:06:33.455Z,73.98
2023-02-23T11:10:01.651Z,73.92
2023-02-23T11:13:30.854Z,73.82
2023-02-23T11:16:59.037Z,73.76
2023-02-23T11:20:31.799Z,73.73
2023-02-23T11:24:02.938Z,73.52
2023-02-23T11:27:30.519Z,73.40
2023-02-23T11:30:58.015Z,73.61
2023-02-23T11:34:32.175Z,73.41
2023-02-23T11:38:00.251Z,73.54
2023-02-23T11:41:27.607Z,73.29
2023-02-23T11:45:06.205Z,73.44
2023-02-23T11:48:39.400Z,73.55
2023-02-23T11:52:12.890Z,72.67
2023-02-23T11:55:41.012Z,72.95
2023-02-23T11:59:17.759Z,72.74
2023-02-23T12:02:55.374Z,72.61
2023-02-23T12:06:35.330Z,72.63
2023-02-23T12:10:08.698Z,72.88
2023-02-23T12:13:40.180Z,72.92
2023-02-23T12:17:15.495Z,72.83
2023-02-23T12:20:48.639Z,72.86
2023-02-23T12:24:26.671Z,72.29
2023-02-23T12:28:07.631Z,71.87
2023-02-23T12:31:48.922Z,71.62
2023-02-23T12:35:20.254Z,71.93
2023-02-23T12:38:55.743Z,72.21
2023-02-23T12:42:27.460Z,71.59
2023-02-23T12:46:00.957Z,71.60
2023-02-23T12:49:36.226Z,71.42
2023-02-23T12:53:23.920Z,71.31
2023-02-23T12:57:04.683Z,71.17
2023-02-23T13:00:47.409Z,71.37
2023-02-23T13:04:54.566Z,71.27
2023-02-23T13:08:32.916Z,70.99
2023-02-23T13:12:11.821Z,70.88
2023-02-23T13:15:53.979Z,71.29
2023-02-23T13:19:31.225Z,70.95
2023-02-23T13:23:10.435Z,70.79
2023-02-23T13:26:45.497Z,70.79
2023-02-23T13:30:16.460Z,70.59
2023-02-23T13:33:44.613Z,70.36
2023-02-23T13:37:16.474Z,70.41
2023-02-23T13:40:52.213Z,70.29
2023-02-23T13:44:28.602Z,70.45
2023-02-23T13:48:03.893Z,70.09
2023-02-23T13:51:45.197Z,70.19
2023-02-23T13:55:48.286Z,70.15
2023-02-23T13:59:22.411Z,70.07
2023-02-23T14:02:50.158Z,69.99
2023-02-23T14:06:21.738Z,70.01
2023-02-23T14:09:55.647Z,70.23
2023-02-23T14:13:32.213Z,70.08
2023-02-23T14:17:30.717Z,70.36
2023-02-23T14:21:03.405Z,70.54
2023-02-23T14:24:31.072Z,70.54
2023-02-23T14:28:02.673Z,70.50
2023-02-23T14:31:36.113Z,70.62
2023-02-23T14:35:04.925Z,70.76
2023-02-23T14:38:47.918Z,70.62
2023-02-23T14:42:24.942Z,70.80
2023-02-23T14:45:57.569Z,71.00
2023-02-23T14:49:27.892Z,71.26
2023-02-23T14:52:57.212Z,71.15
2023-02-23T14:56:35.505Z,71.28
2023-02-23T15:00:21.290Z,71.37
2023-02-23T15:04:07.949Z,71.27
2023-02-23T15:07:39.367Z,71.42
2023-02-23T15:11:11.958Z,71.18
2023-02-23T15:14:40.150Z,71.31
2023-02-23T15:18:07.469Z,71.32
2023-02-23T15:21:36.212Z,71.47
2023-02-23T15:25:10.884Z,71.35
2023-02-23T15:28:45.702Z,71.35
2023-02-23T15:32:22.032Z,71.53
2023-02-23T15:35:53.072Z,71.36
2023-02-23T15:39:23.338Z,71.53
2023-02-23T15:42:53.995Z,71.79
2023-02-23T15:46:27.743Z,71.85
2023-02-23T15:50:06.250Z,72.04
2023-02-23T15:53:37.345Z,72.18
2023-02-23T15:57:18.724Z,72.35
2023-02-23T16:00:51.493Z,72.65
2023-02-23T16:04:21.879Z,72.63
2023-02-23T16:07:49.087Z,72.90
2023-02-23T16:11:19.480Z,72.99
2023-02-23T16:14:51.177Z,73.26
2023-02-23T16:18:23.164Z,73.42
2023-02-23T16:21:55.174Z,73.59
2023-02-23T16:25:25.627Z,73.76
2023-02-23T16:28:58.207Z,73.92
2023-02-23T16:32:25.732Z,74.19
2023-02-23T16:35:56.058Z,74.36
2023-02-23T16:39:25.505Z,74.44
2023-02-23T16:42:54.037Z,74.58
2023-02-23T16:46:24.625Z,74.81
2023-02-23T16:49:52.436Z,74.95
2023-02-23T16:53:20.023Z,75.10
2023-02-23T16:56:47.814Z,75.03
2023-02-23T17:00:23.888Z,75.23
2023-02-23T17:03:53.252Z,75.36
2023-02-23T17:07:23.838Z,75.38
2023-02-23T17:10:54.282Z,75.60
2023-02-23T17:14:32.064Z,75.71
2023-02-23T17:17:59.953Z,75.79
2023-02-23T17:21:27.115Z,75.81
2023-02-23T17:24:54.312Z,75.99
2023-02-23T17:28:22.145Z,76.05
2023-02-23T17:31:49.921Z,76.19
2023-02-23T17:35:17.318Z,76.15
2023-02-23T17:38:45.321Z,76.37
2023-02-23T17:42:12.592Z,76.54
2023-02-23T17:45:40.049Z,76.68
2023-02-23T17:49:07.731Z,76.74
2023-02-23T17:52:34.990Z,76.88
2023-02-23T17:56:02.800Z,77.03
2023-02-23T17:59:30.033Z,77.07
2023-02-23T18:02:57.499Z,77.23
2023-02-23T18:06:25.066Z,77.40
2023-02-23T18:09:52.616Z,77.42
2023-02-23T18:13:20.507Z,77.59
2023-02-23T18:16:47.737Z,77.66
2023-02-23T18:20:16.258Z,77.91
2023-02-23T18:23:43.584Z,77.95
2023-02-23T18:27:12.719Z,78.08
2023-02-23T18:30:40.986Z,78.39
2023-02-23T18:34:09.034Z,78.56
2023-02-23T18:37:36.807Z,78.79
2023-02-23T18:41:04.227Z,79.15
2023-02-23T18:44:32.947Z,79.30
2023-02-23T18:48:02.387Z,79.37
2023-02-23T18:51:29.909Z,79.62
2023-02-23T18:54:57.296Z,79.76
2023-02-23T18:58:24.412Z,79.81
2023-02-23T19:01:52.824Z,80.17
2023-02-23T19:05:22.091Z,80.33
2023-02-23T19:08:54.298Z,80.47
2023-02-23T19:12:21.666Z,80.39
2023-02-23T19:15:53.688Z,80.56
2023-02-23T19:19:21.661Z,81.01
2023-02-23T19:22:49.832Z,81.34
2023-02-23T19:26:18.801Z,81.62
2023-02-23T19:29:46.739Z,81.97
2023-02-23T19:33:14.312Z,82.44
2023-02-23T19:36:41.515Z,82.67
2023-02-23T19:40:11.112Z,83.13
2023-02-23T19:43:38.954Z,83.35
2023-02-23T19:47:06.187Z,83.65
2023-02-23T19:50:33.514Z,83.84
2023-02-23T19:54:01.334Z,84.27
2023-02-23T19:57:28.830Z,84.24
2023-02-23T20:00:57.501Z,84.30
2023-02-23T20:04:25.026Z,84.82
2023-02-23T20:07:52.754Z,84.94
2023-02-23T20:11:20.346Z,85.03
2023-02-23T20:14:49.682Z,85.14
2023-02-23T20:18:16.745Z,85.14
2023-02-23T20:21:44.140Z,85.29
2023-02-23T20:25:15.708Z,85.47
2023-02-23T20:28:44.852Z,85.37
2023-02-23T20:32:12.386Z,85.45
2023-02-23T20:35:39.770Z,85.54
2023-02-23T20:39:07.168Z,85.67
2023-02-23T20:42:34.508Z,85.65
2023-02-23T20:46:02.885Z,85.48
2023-02-23T20:49:30.757Z,85.59
2023-02-23T20:53:02.556Z,85.74
2023-02-23T20:56:32.900Z,86.06
2023-02-23T21:00:01.692Z,86.11
2023-02-23T21:03:29.164Z,86.45
2023-02-23T21:06:56.257Z,86.37
2023-02-23T21:10:23.466Z,86.54
2023-02-23T21:13:50.860Z,86.62
2023-02-23T21:17:18.430Z,86.57
2023-02-23T21:20:46.305Z,86.98
2023-02-23T21:24:14.955Z,87.24
2023-02-23T21:27:43.281Z,87.25
2023-02-23T21:31:12.714Z,87.50
2023-02-23T21:34:40.025Z,87.43
2023-02-23T21:38:08.376Z,87.37
2023-02-23T21:41:37.858Z,87.48
2023-02-23T21:45:05.723Z,87.84
2023-02-23T21:48:32.920Z,87.75
2023-02-23T21:52:00.037Z,87.82
2023-02-23T21:55:27.361Z,88.08
2023-02-23T21:58:56.178Z,88.25
2023-02-23T22:02:24.136Z,88.45
2023-02-23T22:05:51.985Z,88.52
2023-02-23T22:09:21.799Z,88.95
2023-02-23T22:12:50.209Z,88.82
2023-02-23T22:16:19.646Z,88.93
2023-02-23T22:19:45.793Z,89.44
2023-02-23T22:23:13.986Z,89.34
2023-02-23T22:26:46.835Z,89.25
2023-02-23T22:30:16.082Z,89.67
2023-02-23T22:33:44.733Z,89.66
2023-02-23T22:37:11.885Z,89.51
2023-02-23T22:40:42.324Z,89.83
2023-02-23T22:44:09.984Z,90.13
2023-02-23T22:47:38.880Z,89.96
2023-02-23T22:51:07.807Z,90.36
2023-02-23T22:54:37.323Z,90.56
2023-02-23T22:58:08.370Z,90.83
2023-02-23T23:01:36.401Z,90.82
2023-02-23T23:05:03.779Z,91.15
2023-02-23T23:08:31.486Z,91.27
2023-02-23T23:11:58.772Z,91.54
2023-02-23T23:15:25.950Z,91.47
2023-02-23T23:18:55.664Z,91.55
2023-02-23T23:22:25.354Z,91.75
2023-02-23T23:25:52.048Z,91.69
2023-02-23T23:29:19.617Z,91.64
2023-02-23T23:32:47.160Z,91.64
2023-02-23T23:36:25.705Z,91.71
2023-02-23T23:39:59.382Z,91.54
2023-02-23T23:43:26.772Z,91.66
2023-02-23T23:46:54.061Z,91.81
2023-02-23T23:50:26.939Z,91.96
2023-02-23T23:53:55.067Z,92.04
2023-02-23T23:57:22.454Z,92.17
